Easter Island, Chile
Current Conditions -  °F | °C
As of 2:00 AM on Tuesday 21 Oct 2014 (Local Time) from SCIP Reporting Station
Broken Clouds Broken Clouds  
Wind Chill: 16°   Ceiling: 2000
Heat Index: 16°   Visibility: 6mi
Dew Point:   Wind: 12mph
Humidity: 55%   Direction: 100°E
Pressure: 30.27"   Gusts: NA
Location:  27.12°S, 109.37°W
Report Text: SCIP 210700Z 10010KT 9999 BKN020 BKN030 16/07 Q1025 NOSIG
Loading
Personal Weather Stations






























Interactive Weather Map
Tropical Storm Tracking
New forecast layout! Learn more

10-Day Weather Forecast

Advertisements
Track Severe Weather on mobile